Regen van: 18-08-2019 02:59 tot: 14:59 waarschuwing voor: Regen niveau: Geel info button

Vossem Meer informatie Vossem


Tervuren markt Meer informatie Tervuren markt


Tervuren park Meer informatie Tervuren park


waarschuwing voor Regen Meer informatie rain snow radar


Bezoek onze andere website:

Meteotemplate

Home Weather Station

Saratoga


Lokaal brand risico:
CBI


Regionaal brand risico: Meer informatie



METAR rapporten vliegvelden

   
EBBR - Brussels
Gewijzigd: Aug 18 2019 4:50 am
Wat regen mogelijk, Gedeeltelijk bewolkt  
Wat regen mogelijk, Gedeeltelijk bewolkt  
   Wind: Zuiden 11.1 km/h
Wind: Zuiden 11.1 km/h
Temperatuur: 15°C
Dauwpunt: 14°C
Vochtigheid: 94%
Barometer: 1007 mb
Bewolking: Gedeeltelijk bewolkt
Zicht: meer dan 10 km
Bewolking: Gedeeltelijk bewolkt 304.8 m
EBBR 180250Z 19006KT 9999 -RA SCT010 15/14 Q1007 NOSIG
EBAW - Antwerp
Gewijzigd: Aug 18 2019 4:50 am
Lichte (mot)regen, Helder  
Lichte (mot)regen, Helder  
   Wind: ZZW 9.3 km/h
Wind: ZZW 9.3 km/h
Temperatuur: 16°C
Dauwpunt: 15°C
Vochtigheid: 94%
Barometer: 1006 mb
Bewolking: Helder
Zicht: meer dan 10 km
Bewolking: Helder
EBAW 180250Z AUTO 20005KT 9999 -DZ NCD 16/15 Q1006
EHBK - Maastricht
Gewijzigd: Aug 18 2019 4:55 am
Motregen, Gedeeltelijk bewolkt  
Motregen, Gedeeltelijk bewolkt  
   Wind: Zuiden 13 km/h
Wind: Zuiden 13 km/h
Temperatuur: 14°C
Dauwpunt: 14°C
Vochtigheid: 100%
Barometer: 1007 mb
Bewolking: Gedeeltelijk bewolkt
Zicht: meer dan 10 km
Bewolking: Licht bewolkt 91.4 m,
Gedeeltelijk bewolkt 457.2 m
EHBK 180255Z AUTO 18007KT 9999 DZ FEW003 SCT015CB 14/14 Q1007
EDLV - Nijmegen
Gewijzigd: Aug 18 2019 4:50 am
Regen, Grotendeels bewolkt  
Regen, Grotendeels bewolkt  
   Wind: ZZW 11.1 km/h
Wind: ZZW 11.1 km/h
Temperatuur: 15°C
Dauwpunt: 15°C
Vochtigheid: 100%
Barometer: 1007 mb
Bewolking: Grotendeels bewolkt
Zicht: 6 km
Bewolking: Grotendeels bewolkt 152.4 m
EDLV 180250Z 20006KT 6000 RA BKN005 15/15 Q1007
EHRD - Rotterdam
Gewijzigd: Aug 18 2019 4:55 am
Lichte (mot)regen, Licht bewolkt  
Lichte (mot)regen, Licht bewolkt  
   Wind: ZZW 13 km/h
Wind: ZZW 13 km/h
Temperatuur: 16°C
Dauwpunt: 15°C
Vochtigheid: 94%
Barometer: 1005 mb
Bewolking: Licht bewolkt
Zicht: meer dan 10 km
Bewolking: Licht bewolkt 457.2 m
EHRD 180255Z AUTO 20007KT 170V230 9999 -DZ FEW015CB 16/15 Q1005 REDZ NOSIG
 

Script ontwikkeld door  Saratoga-weather.org Aangepast voor de template door  Weerstation Leuven

U vindt ons ook hier:

Het Weer Aktueel

UK Metoffice

European Weather Network

WeatherCloud

Weather Underground

Benelux Weer Netwerk

AWEKAS

Citizen Weather Observer Program (CWOP)

Apparatuur in gebruik:

Weerstation
Davis VP2

Weerprogramma
Meteobridge

Weercomputer
TP-Link MR3020

Davis VP2

Meteobridge

TP-Link MR3020